sensor_id;sensor_type;location;lat;lon;timestamp;pressure;altitude;pressure_sealevel;temperature;humidity
48553;BME280;34335;51.566;6.994;2022-07-29T00:00:08;101028.47;;;18.88;49.30
48553;BME280;34335;51.566;6.994;2022-07-29T00:02:34;101029.44;;;18.85;49.33
48553;BME280;34335;51.566;6.994;2022-07-29T00:05:00;101024.53;;;18.73;50.64
48553;BME280;34335;51.566;6.994;2022-07-29T00:07:26;101033.84;;;18.84;49.00
48553;BME280;34335;51.566;6.994;2022-07-29T00:09:51;101026.09;;;18.80;49.15
48553;BME280;34335;51.566;6.994;2022-07-29T00:12:17;101030.75;;;18.70;49.68
48553;BME280;34335;51.566;6.994;2022-07-29T00:14:42;101034.03;;;18.78;48.80
48553;BME280;34335;51.566;6.994;2022-07-29T00:17:08;101023.81;;;18.67;50.14
48553;BME280;34335;51.566;6.994;2022-07-29T00:19:33;101029.03;;;18.69;48.75
48553;BME280;34335;51.566;6.994;2022-07-29T00:21:59;101030.69;;;18.72;48.83
48553;BME280;34335;51.566;6.994;2022-07-29T00:24:25;101025.44;;;18.72;48.71
48553;BME280;34335;51.566;6.994;2022-07-29T00:26:50;101025.44;;;18.72;48.41
48553;BME280;34335;51.566;6.994;2022-07-29T00:29:15;101030.97;;;18.62;49.14
48553;BME280;34335;51.566;6.994;2022-07-29T00:31:40;101021.09;;;18.71;48.69
48553;BME280;34335;51.566;6.994;2022-07-29T00:34:06;101013.19;;;18.71;48.14
48553;BME280;34335;51.566;6.994;2022-07-29T00:36:51;101006.38;;;18.63;48.75
48553;BME280;34335;51.566;6.994;2022-07-29T00:39:16;101001.22;;;18.60;48.70
48553;BME280;34335;51.566;6.994;2022-07-29T00:41:41;101002.78;;;18.66;48.71
48553;BME280;34335;51.566;6.994;2022-07-29T00:44:07;100998.56;;;18.60;49.21
48553;BME280;34335;51.566;6.994;2022-07-29T00:46:32;100989.94;;;18.55;49.30
48553;BME280;34335;51.566;6.994;2022-07-29T00:48:57;100990.22;;;18.46;51.05
48553;BME280;34335;51.566;6.994;2022-07-29T00:51:25;100984.03;;;18.47;50.04
48553;BME280;34335;51.566;6.994;2022-07-29T00:53:51;100978.56;;;18.53;49.71
48553;BME280;34335;51.566;6.994;2022-07-29T00:56:16;100978.81;;;18.45;50.92
48553;BME280;34335;51.566;6.994;2022-07-29T00:58:42;100976.81;;;18.24;52.01
48553;BME280;34335;51.566;6.994;2022-07-29T01:01:07;100971.16;;;18.06;52.79
48553;BME280;34335;51.566;6.994;2022-07-29T01:03:32;100971.34;;;18.31;49.50
48553;BME280;34335;51.566;6.994;2022-07-29T01:05:58;100965.78;;;18.41;49.37
48553;BME280;34335;51.566;6.994;2022-07-29T01:08:24;100961.66;;;18.32;49.82
48553;BME280;34335;51.566;6.994;2022-07-29T01:10:50;100965.97;;;18.34;50.98
48553;BME280;34335;51.566;6.994;2022-07-29T01:13:16;100958.97;;;18.33;49.21
48553;BME280;34335;51.566;6.994;2022-07-29T01:15:51;100955.44;;;18.34;49.26
48553;BME280;34335;51.566;6.994;2022-07-29T01:18:25;100955.00;;;18.18;51.48
48553;BME280;34335;51.566;6.994;2022-07-29T01:26:54;100949.84;;;18.15;50.79
48553;BME280;34335;51.566;6.994;2022-07-29T01:29:36;100934.00;;;18.17;49.74
48553;BME280;34335;51.566;6.994;2022-07-29T01:32:09;100929.84;;;18.10;50.81
48553;BME280;34335;51.566;6.994;2022-07-29T01:34:49;100933.56;;;18.01;51.30
48553;BME280;34335;51.566;6.994;2022-07-29T01:37:22;100935.25;;;18.03;50.57
48553;BME280;34335;51.566;6.994;2022-07-29T01:39:51;100941.47;;;18.01;50.53
48553;BME280;34335;51.566;6.994;2022-07-29T01:47:53;100938.00;;;17.99;50.73
48553;BME280;34335;51.566;6.994;2022-07-29T01:50:34;100933.91;;;17.88;50.89
48553;BME280;34335;51.566;6.994;2022-07-29T01:53:03;100924.97;;;17.94;50.04
48553;BME280;34335;51.566;6.994;2022-07-29T01:55:34;100933.81;;;17.91;50.68
48553;BME280;34335;51.566;6.994;2022-07-29T01:58:01;100930.66;;;17.79;52.87
48553;BME280;34335;51.566;6.994;2022-07-29T02:00:29;100925.41;;;17.79;50.62
48553;BME280;34335;51.566;6.994;2022-07-29T02:02:59;100927.38;;;17.70;51.61
48553;BME280;34335;51.566;6.994;2022-07-29T02:05:28;100924.63;;;17.75;53.27
48553;BME280;34335;51.566;6.994;2022-07-29T02:07:55;100927.13;;;17.80;50.04
48553;BME280;34335;51.566;6.994;2022-07-29T02:10:26;100925.41;;;17.79;50.20
48553;BME280;34335;51.566;6.994;2022-07-29T02:12:54;100926.84;;;17.57;52.35
48553;BME280;34335;51.566;6.994;2022-07-29T02:15:20;100914.16;;;17.73;50.72
48553;BME280;34335;51.566;6.994;2022-07-29T02:17:55;100919.63;;;17.66;53.20
48553;BME280;34335;51.566;6.994;2022-07-29T02:20:22;100917.94;;;17.63;51.81
48553;BME280;34335;51.566;6.994;2022-07-29T02:22:48;100924.94;;;17.64;50.90
48553;BME280;34335;51.566;6.994;2022-07-29T02:25:16;100921.28;;;17.68;50.68
48553;BME280;34335;51.566;6.994;2022-07-29T02:27:42;100926.56;;;17.68;50.69
48553;BME280;34335;51.566;6.994;2022-07-29T02:30:08;100927.56;;;17.63;51.92
48553;BME280;34335;51.566;6.994;2022-07-29T02:32:36;100918.66;;;17.68;50.58
48553;BME280;34335;51.566;6.994;2022-07-29T02:35:02;100913.44;;;17.67;50.51
48553;BME280;34335;51.566;6.994;2022-07-29T02:37:29;100912.56;;;17.66;50.92
48553;BME280;34335;51.566;6.994;2022-07-29T02:39:57;100910.03;;;17.63;51.59
48553;BME280;34335;51.566;6.994;2022-07-29T02:42:26;100921.59;;;17.57;51.97
48553;BME280;34335;51.566;6.994;2022-07-29T02:44:52;100916.34;;;17.56;52.42
48553;BME280;34335;51.566;6.994;2022-07-29T02:47:24;100915.63;;;17.51;52.93
48553;BME280;34335;51.566;6.994;2022-07-29T02:50:20;100909.84;;;17.38;53.85
48553;BME280;34335;51.566;6.994;2022-07-29T02:55:31;100914.31;;;17.34;53.19
48553;BME280;34335;51.566;6.994;2022-07-29T02:58:05;100911.69;;;17.34;52.98
48553;BME280;34335;51.566;6.994;2022-07-29T03:00:37;100922.38;;;17.26;53.08
48553;BME280;34335;51.566;6.994;2022-07-29T03:03:04;100923.13;;;17.32;52.48
48553;BME280;34335;51.566;6.994;2022-07-29T03:05:30;100919.44;;;17.03;56.96
48553;BME280;34335;51.566;6.994;2022-07-29T03:08:00;100929.00;;;17.07;56.34
48553;BME280;34335;51.566;6.994;2022-07-29T03:10:26;100934.25;;;17.07;54.99
48553;BME280;34335;51.566;6.994;2022-07-29T03:12:51;100955.53;;;16.96;58.08
48553;BME280;34335;51.566;6.994;2022-07-29T03:15:18;100962.81;;;16.81;58.41
48553;BME280;34335;51.566;6.994;2022-07-29T03:17:44;100968.75;;;16.90;57.21
48553;BME280;34335;51.566;6.994;2022-07-29T03:20:11;100974.28;;;16.79;58.14
48553;BME280;34335;51.566;6.994;2022-07-29T03:22:40;100971.06;;;16.66;59.01
48553;BME280;34335;51.566;6.994;2022-07-29T03:25:13;100974.47;;;16.70;58.66
48553;BME280;34335;51.566;6.994;2022-07-29T03:27:39;100982.19;;;16.77;58.44
48553;BME280;34335;51.566;6.994;2022-07-29T03:30:06;100980.59;;;16.70;58.64
48553;BME280;34335;51.566;6.994;2022-07-29T03:32:31;100965.47;;;16.81;57.24
48553;BME280;34335;51.566;6.994;2022-07-29T03:34:57;100961.09;;;16.80;58.29
48553;BME280;34335;51.566;6.994;2022-07-29T03:37:22;100968.84;;;16.46;60.58
48553;BME280;34335;51.566;6.994;2022-07-29T03:39:49;100974.84;;;16.52;60.20
48553;BME280;34335;51.566;6.994;2022-07-29T03:42:16;100971.19;;;16.60;59.63
48553;BME280;34335;51.566;6.994;2022-07-29T03:44:44;100974.75;;;16.57;59.46
48553;BME280;34335;51.566;6.994;2022-07-29T03:47:11;100961.19;;;16.76;56.91
48553;BME280;34335;51.566;6.994;2022-07-29T03:49:40;100954.47;;;16.64;59.59
48553;BME280;34335;51.566;6.994;2022-07-29T03:52:07;100960.28;;;16.39;61.11
48553;BME280;34335;51.566;6.994;2022-07-29T03:54:33;100969.84;;;16.42;60.04
48553;BME280;34335;51.566;6.994;2022-07-29T03:57:01;100969.94;;;16.37;60.71
48553;BME280;34335;51.566;6.994;2022-07-29T03:59:27;100961.97;;;16.42;61.02
48553;BME280;34335;51.566;6.994;2022-07-29T04:01:53;100956.84;;;16.34;61.53
48553;BME280;34335;51.566;6.994;2022-07-29T04:04:21;100974.34;;;16.35;61.60
48553;BME280;34335;51.566;6.994;2022-07-29T04:06:46;100972.47;;;16.40;61.02
48553;BME280;34335;51.566;6.994;2022-07-29T04:09:12;100971.94;;;16.24;61.86
48553;BME280;34335;51.566;6.994;2022-07-29T04:11:41;100978.75;;;16.33;60.84
48553;BME280;34335;51.566;6.994;2022-07-29T04:14:06;100991.13;;;16.26;62.14
48553;BME280;34335;51.566;6.994;2022-07-29T04:16:32;101006.78;;;16.31;61.26
48553;BME280;34335;51.566;6.994;2022-07-29T04:18:58;101011.69;;;16.48;59.12
48553;BME280;34335;51.566;6.994;2022-07-29T04:21:23;101022.38;;;16.39;61.53
48553;BME280;34335;51.566;6.994;2022-07-29T04:23:49;101036.50;;;16.33;61.15
48553;BME280;34335;51.566;6.994;2022-07-29T04:26:18;101051.16;;;16.43;61.23
48553;BME280;34335;51.566;6.994;2022-07-29T04:28:44;101036.94;;;16.54;59.78
48553;BME280;34335;51.566;6.994;2022-07-29T04:31:10;101036.25;;;16.45;60.39
48553;BME280;34335;51.566;6.994;2022-07-29T04:33:36;101030.50;;;16.26;62.04
48553;BME280;34335;51.566;6.994;2022-07-29T04:36:01;101036.66;;;16.24;63.96
48553;BME280;34335;51.566;6.994;2022-07-29T04:38:27;101032.25;;;16.26;62.84
48553;BME280;34335;51.566;6.994;2022-07-29T04:40:52;101018.28;;;16.24;66.93
48553;BME280;34335;51.566;6.994;2022-07-29T04:43:17;101022.50;;;15.82;69.25
48553;BME280;34335;51.566;6.994;2022-07-29T04:45:43;101017.56;;;15.67;72.16
48553;BME280;34335;51.566;6.994;2022-07-29T04:48:08;101009.00;;;15.55;73.70
48553;BME280;34335;51.566;6.994;2022-07-29T04:50:33;101006.59;;;15.43;77.83
48553;BME280;34335;51.566;6.994;2022-07-29T04:52:59;101019.56;;;15.52;75.31
48553;BME280;34335;51.566;6.994;2022-07-29T04:55:24;101013.63;;;15.41;76.80
48553;BME280;34335;51.566;6.994;2022-07-29T04:57:50;101006.44;;;15.52;73.20
48553;BME280;34335;51.566;6.994;2022-07-29T05:00:16;101009.50;;;15.24;76.61
48553;BME280;34335;51.566;6.994;2022-07-29T05:02:42;101006.69;;;15.38;77.01
48553;BME280;34335;51.566;6.994;2022-07-29T05:05:08;101010.78;;;15.53;76.02
48553;BME280;34335;51.566;6.994;2022-07-29T05:07:33;101000.25;;;15.58;72.88
48553;BME280;34335;51.566;6.994;2022-07-29T05:09:58;100986.34;;;16.03;68.81
48553;BME280;34335;51.566;6.994;2022-07-29T05:12:24;100984.59;;;16.02;69.22
48553;BME280;34335;51.566;6.994;2022-07-29T05:14:50;100986.13;;;15.64;73.26
48553;BME280;34335;51.566;6.994;2022-07-29T05:17:16;100981.91;;;15.58;74.13
48553;BME280;34335;51.566;6.994;2022-07-29T05:19:41;100973.03;;;15.12;75.22
48553;BME280;34335;51.566;6.994;2022-07-29T05:22:06;100959.94;;;15.10;75.74
48553;BME280;34335;51.566;6.994;2022-07-29T05:24:32;100959.63;;;15.31;74.91
48553;BME280;34335;51.566;6.994;2022-07-29T05:26:57;100959.91;;;15.64;70.69
48553;BME280;34335;51.566;6.994;2022-07-29T05:29:22;100970.06;;;15.82;68.60
48553;BME280;34335;51.566;6.994;2022-07-29T05:31:53;100967.34;;;15.90;67.88
48553;BME280;34335;51.566;6.994;2022-07-29T05:34:19;100957.94;;;15.78;69.08
48553;BME280;34335;51.566;6.994;2022-07-29T05:36:45;100964.91;;;15.79;70.13
48553;BME280;34335;51.566;6.994;2022-07-29T05:39:10;100971.00;;;15.80;69.90
48553;BME280;34335;51.566;6.994;2022-07-29T05:41:36;100973.38;;;15.95;69.99
48553;BME280;34335;51.566;6.994;2022-07-29T05:44:01;100981.13;;;16.01;68.11
48553;BME280;34335;51.566;6.994;2022-07-29T05:46:27;100989.72;;;16.10;66.08
48553;BME280;34335;51.566;6.994;2022-07-29T05:48:53;100994.16;;;16.06;68.55
48553;BME280;34335;51.566;6.994;2022-07-29T05:51:18;101004.72;;;16.01;69.38
48553;BME280;34335;51.566;6.994;2022-07-29T05:53:44;101016.06;;;16.03;66.04
48553;BME280;34335;51.566;6.994;2022-07-29T05:56:10;101022.22;;;16.02;68.57
48553;BME280;34335;51.566;6.994;2022-07-29T05:58:35;101023.31;;;15.91;71.90
48553;BME280;34335;51.566;6.994;2022-07-29T06:01:01;101011.78;;;15.98;68.07
48553;BME280;34335;51.566;6.994;2022-07-29T06:03:27;101011.56;;;16.10;65.08
48553;BME280;34335;51.566;6.994;2022-07-29T06:05:52;100994.06;;;16.11;70.46
48553;BME280;34335;51.566;6.994;2022-07-29T06:08:18;100983.44;;;16.17;66.31
48553;BME280;34335;51.566;6.994;2022-07-29T06:10:43;100977.16;;;16.26;65.94
48553;BME280;34335;51.566;6.994;2022-07-29T06:13:09;100970.09;;;16.29;66.82
48553;BME280;34335;51.566;6.994;2022-07-29T06:15:34;100975.50;;;16.20;65.93
48553;BME280;34335;51.566;6.994;2022-07-29T06:18:00;100981.56;;;16.24;64.38
48553;BME280;34335;51.566;6.994;2022-07-29T06:20:25;100969.34;;;16.23;63.84
48553;BME280;34335;51.566;6.994;2022-07-29T06:22:51;100965.72;;;16.30;64.51
48553;BME280;34335;51.566;6.994;2022-07-29T06:25:17;100958.72;;;16.29;65.11
48553;BME280;34335;51.566;6.994;2022-07-29T06:27:42;100949.19;;;16.25;66.22
48553;BME280;34335;51.566;6.994;2022-07-29T06:30:07;100948.22;;;16.29;65.63
48553;BME280;34335;51.566;6.994;2022-07-29T06:32:33;100943.97;;;16.23;66.95
48553;BME280;34335;51.566;6.994;2022-07-29T06:35:00;100952.22;;;16.03;72.86
48553;BME280;34335;51.566;6.994;2022-07-29T06:37:25;100945.00;;;16.14;66.94
48553;BME280;34335;51.566;6.994;2022-07-29T06:39:51;100939.47;;;16.28;67.92
48553;BME280;34335;51.566;6.994;2022-07-29T06:42:36;100922.97;;;16.23;69.15
48553;BME280;34335;51.566;6.994;2022-07-29T06:45:01;100936.16;;;16.20;70.93
48553;BME280;34335;51.566;6.994;2022-07-29T06:47:26;100962.00;;;15.96;74.76
48553;BME280;34335;51.566;6.994;2022-07-29T06:49:52;100987.97;;;16.09;72.75
48553;BME280;34335;51.566;6.994;2022-07-29T06:52:18;100994.09;;;16.09;75.63
48553;BME280;34335;51.566;6.994;2022-07-29T06:54:43;101002.91;;;16.05;74.36
48553;BME280;34335;51.566;6.994;2022-07-29T06:57:13;100989.56;;;16.16;68.33
48553;BME280;34335;51.566;6.994;2022-07-29T06:59:38;100990.13;;;16.33;67.78
48553;BME280;34335;51.566;6.994;2022-07-29T07:02:04;100991.25;;;16.20;73.01
48553;BME280;34335;51.566;6.994;2022-07-29T07:04:29;101003.44;;;16.23;69.74
48553;BME280;34335;51.566;6.994;2022-07-29T07:06:54;101011.53;;;16.12;73.28
48553;BME280;34335;51.566;6.994;2022-07-29T07:09:20;101008.69;;;16.24;67.84
48553;BME280;34335;51.566;6.994;2022-07-29T07:11:46;101009.22;;;16.40;66.59
48553;BME280;34335;51.566;6.994;2022-07-29T07:14:11;101009.13;;;16.45;66.37
48553;BME280;34335;51.566;6.994;2022-07-29T07:16:36;101016.16;;;16.44;70.07
48553;BME280;34335;51.566;6.994;2022-07-29T07:19:01;101021.19;;;16.54;66.24
48553;BME280;34335;51.566;6.994;2022-07-29T07:21:27;101017.69;;;16.55;68.35
48553;BME280;34335;51.566;6.994;2022-07-29T07:23:52;101023.72;;;16.58;67.34
48553;BME280;34335;51.566;6.994;2022-07-29T07:26:17;101035.16;;;16.56;67.16
48553;BME280;34335;51.566;6.994;2022-07-29T07:28:43;101034.47;;;16.46;72.36
48553;BME280;34335;51.566;6.994;2022-07-29T07:31:08;101036.81;;;16.60;68.75
48553;BME280;34335;51.566;6.994;2022-07-29T07:33:34;101036.72;;;16.66;65.59
48553;BME280;34335;51.566;6.994;2022-07-29T07:35:59;101038.44;;;16.65;70.50
48553;BME280;34335;51.566;6.994;2022-07-29T07:38:25;101040.78;;;16.79;71.72
48553;BME280;34335;51.566;6.994;2022-07-29T07:40:50;101052.28;;;16.75;68.26
48553;BME280;34335;51.566;6.994;2022-07-29T07:43:15;101058.13;;;16.88;69.27
48553;BME280;34335;51.566;6.994;2022-07-29T07:45:40;101066.78;;;16.95;69.63
48553;BME280;34335;51.566;6.994;2022-07-29T07:48:06;101067.47;;;17.03;68.39
48553;BME280;34335;51.566;6.994;2022-07-29T07:50:31;101072.78;;;17.00;65.27
48553;BME280;34335;51.566;6.994;2022-07-29T07:52:57;101064.00;;;17.01;66.87
48553;BME280;34335;51.566;6.994;2022-07-29T07:55:23;101065.69;;;17.04;65.91
48553;BME280;34335;51.566;6.994;2022-07-29T07:57:48;101063.72;;;17.13;65.39
48553;BME280;34335;51.566;6.994;2022-07-29T08:00:14;101058.41;;;17.17;64.31
48553;BME280;34335;51.566;6.994;2022-07-29T08:02:41;101067.84;;;17.25;64.94
48553;BME280;34335;51.566;6.994;2022-07-29T08:05:08;101056.22;;;17.36;65.70
48553;BME280;34335;51.566;6.994;2022-07-29T08:07:33;101056.66;;;17.53;68.26
48553;BME280;34335;51.566;6.994;2022-07-29T08:09:59;101061.06;;;17.53;64.20
48553;BME280;34335;51.566;6.994;2022-07-29T08:12:24;101059.28;;;17.55;63.14
48553;BME280;34335;51.566;6.994;2022-07-29T08:14:49;101055.72;;;17.56;62.69
48553;BME280;34335;51.566;6.994;2022-07-29T08:17:14;101062.63;;;17.60;62.58
48553;BME280;34335;51.566;6.994;2022-07-29T08:19:40;101060.84;;;17.62;62.67
48553;BME280;34335;51.566;6.994;2022-07-29T08:22:05;101056.44;;;17.63;62.70
48553;BME280;34335;51.566;6.994;2022-07-29T08:24:30;101058.94;;;17.69;63.03
48553;BME280;34335;51.566;6.994;2022-07-29T08:27:08;101065.44;;;17.52;66.47
48553;BME280;34335;51.566;6.994;2022-07-29T08:29:34;101068.63;;;17.65;66.16
48553;BME280;34335;51.566;6.994;2022-07-29T08:31:59;101065.22;;;17.63;66.70
48553;BME280;34335;51.566;6.994;2022-07-29T08:34:25;101068.13;;;17.51;65.97
48553;BME280;34335;51.566;6.994;2022-07-29T08:36:50;101060.06;;;17.57;67.76
48553;BME280;34335;51.566;6.994;2022-07-29T08:39:16;101063.97;;;17.76;66.38
48553;BME280;34335;51.566;6.994;2022-07-29T08:41:42;101070.72;;;17.87;62.87
48553;BME280;34335;51.566;6.994;2022-07-29T08:44:07;101059.19;;;17.92;62.50
48553;BME280;34335;51.566;6.994;2022-07-29T08:46:37;101053.09;;;17.92;63.68
48553;BME280;34335;51.566;6.994;2022-07-29T08:49:02;101061.75;;;17.96;64.12
48553;BME280;34335;51.566;6.994;2022-07-29T08:51:28;101054.41;;;17.74;69.36
48553;BME280;34335;51.566;6.994;2022-07-29T08:53:54;101065.66;;;17.44;69.32
48553;BME280;34335;51.566;6.994;2022-07-29T08:56:20;101060.75;;;17.65;67.62
48553;BME280;34335;51.566;6.994;2022-07-29T08:58:47;101065.41;;;17.90;70.76
48553;BME280;34335;51.566;6.994;2022-07-29T09:01:16;101059.94;;;17.99;69.67
48553;BME280;34335;51.566;6.994;2022-07-29T09:03:43;101063.09;;;17.41;74.26
48553;BME280;34335;51.566;6.994;2022-07-29T09:06:13;101057.16;;;17.69;76.56
48553;BME280;34335;51.566;6.994;2022-07-29T09:08:39;101049.91;;;17.79;75.59
48553;BME280;34335;51.566;6.994;2022-07-29T09:11:05;101046.31;;;17.82;75.38
48553;BME280;34335;51.566;6.994;2022-07-29T09:13:31;101051.13;;;18.00;74.84
48553;BME280;34335;51.566;6.994;2022-07-29T09:15:57;101052.13;;;17.95;74.58
48553;BME280;34335;51.566;6.994;2022-07-29T09:18:42;101045.56;;;18.13;68.97
48553;BME280;34335;51.566;6.994;2022-07-29T09:21:10;101053.00;;;17.97;70.58
48553;BME280;34335;51.566;6.994;2022-07-29T09:24:04;101060.00;;;17.96;72.60
48553;BME280;34335;51.566;6.994;2022-07-29T09:26:33;101056.75;;;18.19;68.29
48553;BME280;34335;51.566;6.994;2022-07-29T09:28:59;101060.47;;;18.12;69.00
48553;BME280;34335;51.566;6.994;2022-07-29T09:31:36;101062.78;;;18.23;67.31
48553;BME280;34335;51.566;6.994;2022-07-29T09:34:03;101061.22;;;18.17;69.51
48553;BME280;34335;51.566;6.994;2022-07-29T09:36:29;101061.94;;;18.22;68.62
48553;BME280;34335;51.566;6.994;2022-07-29T09:39:01;101066.00;;;18.34;66.81
48553;BME280;34335;51.566;6.994;2022-07-29T09:41:27;101048.31;;;18.40;66.30
48553;BME280;34335;51.566;6.994;2022-07-29T09:43:57;101049.31;;;18.35;68.87
48553;BME280;34335;51.566;6.994;2022-07-29T09:46:23;101042.44;;;18.30;69.27
48553;BME280;34335;51.566;6.994;2022-07-29T09:49:08;101039.09;;;18.25;70.46
48553;BME280;34335;51.566;6.994;2022-07-29T09:51:36;101033.91;;;18.21;70.93
48553;BME280;34335;51.566;6.994;2022-07-29T09:54:20;101025.47;;;18.09;73.56
48553;BME280;34335;51.566;6.994;2022-07-29T09:56:46;101024.84;;;18.32;69.76
48553;BME280;34335;51.566;6.994;2022-07-29T09:59:13;101017.06;;;18.27;75.29
48553;BME280;34335;51.566;6.994;2022-07-29T10:01:38;101020.34;;;18.35;74.05
48553;BME280;34335;51.566;6.994;2022-07-29T10:04:04;101023.41;;;18.51;68.47
48553;BME280;34335;51.566;6.994;2022-07-29T10:06:29;101020.22;;;18.40;72.17
48553;BME280;34335;51.566;6.994;2022-07-29T10:08:54;101020.06;;;18.45;75.26
48553;BME280;34335;51.566;6.994;2022-07-29T10:11:20;101020.00;;;18.48;73.63
48553;BME280;34335;51.566;6.994;2022-07-29T10:13:47;101021.22;;;18.36;76.61
48553;BME280;34335;51.566;6.994;2022-07-29T10:16:14;101014.13;;;18.38;72.93
48553;BME280;34335;51.566;6.994;2022-07-29T10:18:41;101010.97;;;18.27;76.01
48553;BME280;34335;51.566;6.994;2022-07-29T10:21:08;101012.72;;;18.26;73.29
48553;BME280;34335;51.566;6.994;2022-07-29T10:23:35;101009.94;;;17.99;75.46
48553;BME280;34335;51.566;6.994;2022-07-29T10:26:02;101017.59;;;17.74;74.62
48553;BME280;34335;51.566;6.994;2022-07-29T10:28:30;101013.41;;;18.01;75.75
48553;BME280;34335;51.566;6.994;2022-07-29T10:31:00;101013.34;;;18.03;75.24
48553;BME280;34335;51.566;6.994;2022-07-29T10:39:37;101016.03;;;18.01;73.48
48553;BME280;34335;51.566;6.994;2022-07-29T10:42:17;101017.78;;;18.32;74.88
48553;BME280;34335;51.566;6.994;2022-07-29T10:44:43;101016.03;;;18.33;75.40
48553;BME280;34335;51.566;6.994;2022-07-29T10:47:25;101017.00;;;18.29;73.98
48553;BME280;34335;51.566;6.994;2022-07-29T10:49:59;101010.91;;;18.58;70.58
48553;BME280;34335;51.566;6.994;2022-07-29T10:52:24;101021.94;;;18.71;69.34
48553;BME280;34335;51.566;6.994;2022-07-29T10:54:53;101033.06;;;18.81;68.26
48553;BME280;34335;51.566;6.994;2022-07-29T10:57:29;101029.25;;;18.93;68.14
48553;BME280;34335;51.566;6.994;2022-07-29T11:04:58;101027.47;;;18.93;68.21
48553;BME280;34335;51.566;6.994;2022-07-29T11:07:25;101031.47;;;19.05;67.11
48553;BME280;34335;51.566;6.994;2022-07-29T11:15:07;101037.34;;;19.15;67.53
48553;BME280;34335;51.566;6.994;2022-07-29T11:22:59;101039.38;;;19.34;67.08
48553;BME280;34335;51.566;6.994;2022-07-29T11:25:24;101043.06;;;19.56;67.28
48553;BME280;34335;51.566;6.994;2022-07-29T11:27:52;101042.03;;;19.87;65.87
48553;BME280;34335;51.566;6.994;2022-07-29T11:30:19;101038.53;;;20.85;71.08
48553;BME280;34335;51.566;6.994;2022-07-29T11:32:45;101046.41;;;20.63;63.70
48553;BME280;34335;51.566;6.994;2022-07-29T11:35:23;101037.53;;;20.64;64.94
48553;BME280;34335;51.566;6.994;2022-07-29T11:38:23;101036.69;;;21.31;64.90
48553;BME280;34335;51.566;6.994;2022-07-29T11:41:21;101035.03;;;21.51;62.70
48553;BME280;34335;51.566;6.994;2022-07-29T11:43:58;101038.06;;;21.85;58.84
48553;BME280;34335;51.566;6.994;2022-07-29T11:46:46;101042.69;;;21.59;59.84
48553;BME280;34335;51.566;6.994;2022-07-29T11:49:19;101045.19;;;22.03;59.76
48553;BME280;34335;51.566;6.994;2022-07-29T11:51:50;101044.78;;;21.92;59.02
48553;BME280;34335;51.566;6.994;2022-07-29T11:54:23;101041.41;;;22.50;58.77
48553;BME280;34335;51.566;6.994;2022-07-29T11:56:49;101044.09;;;22.49;58.56
48553;BME280;34335;51.566;6.994;2022-07-29T11:59:15;101042.09;;;22.54;58.63
48553;BME280;34335;51.566;6.994;2022-07-29T12:01:52;101026.16;;;23.11;58.50
48553;BME280;34335;51.566;6.994;2022-07-29T12:04:18;101032.34;;;22.93;55.89
48553;BME280;34335;51.566;6.994;2022-07-29T12:06:49;101029.09;;;23.24;55.06
48553;BME280;34335;51.566;6.994;2022-07-29T12:09:14;101037.56;;;23.50;52.33
48553;BME280;34335;51.566;6.994;2022-07-29T12:11:39;101028.56;;;24.05;51.65
48553;BME280;34335;51.566;6.994;2022-07-29T12:14:05;101025.66;;;24.27;49.04
48553;BME280;34335;51.566;6.994;2022-07-29T12:16:36;101024.22;;;24.38;50.97
48553;BME280;34335;51.566;6.994;2022-07-29T12:19:03;101033.88;;;24.05;50.07
48553;BME280;34335;51.566;6.994;2022-07-29T12:21:42;101026.88;;;23.69;49.45
48553;BME280;34335;51.566;6.994;2022-07-29T12:24:08;101021.22;;;24.10;51.97
48553;BME280;34335;51.566;6.994;2022-07-29T12:26:33;101025.66;;;24.43;50.74
48553;BME280;34335;51.566;6.994;2022-07-29T12:28:58;101021.81;;;24.49;48.34
48553;BME280;34335;51.566;6.994;2022-07-29T12:31:24;101028.81;;;24.84;50.90
48553;BME280;34335;51.566;6.994;2022-07-29T12:33:53;101032.00;;;24.91;49.92
48553;BME280;34335;51.566;6.994;2022-07-29T12:36:18;101022.94;;;24.45;47.80
48553;BME280;34335;51.566;6.994;2022-07-29T12:38:44;101027.94;;;24.18;50.86
48553;BME280;34335;51.566;6.994;2022-07-29T12:41:10;101027.13;;;24.49;49.33
48553;BME280;34335;51.566;6.994;2022-07-29T12:43:35;101023.94;;;24.76;50.23
48553;BME280;34335;51.566;6.994;2022-07-29T12:46:12;101034.16;;;24.50;50.25
48553;BME280;34335;51.566;6.994;2022-07-29T12:48:42;101030.63;;;23.65;52.16
48553;BME280;34335;51.566;6.994;2022-07-29T12:51:08;101033.38;;;23.99;50.60
48553;BME280;34335;51.566;6.994;2022-07-29T12:53:35;101026.81;;;24.55;52.38
48553;BME280;34335;51.566;6.994;2022-07-29T12:56:02;101026.25;;;24.82;49.20
48553;BME280;34335;51.566;6.994;2022-07-29T12:58:30;101032.34;;;24.84;49.35
48553;BME280;34335;51.566;6.994;2022-07-29T13:01:10;101034.16;;;24.50;50.37
48553;BME280;34335;51.566;6.994;2022-07-29T13:03:57;101033.66;;;24.59;51.48
48553;BME280;34335;51.566;6.994;2022-07-29T13:06:30;101024.59;;;23.61;50.90
48553;BME280;34335;51.566;6.994;2022-07-29T13:11:38;101041.47;;;24.13;50.70
48553;BME280;34335;51.566;6.994;2022-07-29T13:14:07;101038.44;;;24.37;52.71
48553;BME280;34335;51.566;6.994;2022-07-29T13:16:34;101038.28;;;24.56;51.94
48553;BME280;34335;51.566;6.994;2022-07-29T13:19:10;101054.47;;;23.11;52.98
48553;BME280;34335;51.566;6.994;2022-07-29T13:21:37;101041.47;;;24.13;53.26
48553;BME280;34335;51.566;6.994;2022-07-29T13:24:04;101039.75;;;23.77;52.82
48553;BME280;34335;51.566;6.994;2022-07-29T13:26:30;101043.25;;;23.60;52.23
48553;BME280;34335;51.566;6.994;2022-07-29T13:28:56;101043.72;;;23.50;52.04
48553;BME280;34335;51.566;6.994;2022-07-29T13:31:22;101048.44;;;23.98;51.80